This is the latest recevied weather packets stored in our database for station/object DK4EP-10. If no packets are shown the sender has not sent any weather packets the latest 1 day(s).
| Time | Temp. | Humidity | Pressure | Rain* | Wind** | Luminosity | Snow |
|---|---|---|---|---|---|---|---|
| 1777745243 | 18.89° C | 45% | 994 hPa | - | - | - | - |
| 1777744342 | 20° C | 42% | 994 hPa | - | - | - | - |
| 1777743441 | 20.56° C | 43% | 994 hPa | - | - | - | - |
| 1777742539 | 22.22° C | 41% | 994 hPa | - | - | - | - |
| 1777741638 | 22.78° C | 38% | 994 hPa | - | - | - | - |
| 1777740738 | 23.89° C | 39% | 994 hPa | - | - | - | - |
| 1777739836 | 25° C | 36% | 994 hPa | - | - | - | - |
| 1777738934 | 29.44° C | 31% | 995 hPa | - | - | - | - |
| 1777738033 | 29.44° C | 29% | 995 hPa | - | - | - | - |
| 1777737132 | 30° C | 29% | 995 hPa | - | - | - | - |
| 1777736231 | 28.89° C | 29% | 995 hPa | - | - | - | - |
| 1777735332 | 30° C | 31% | 995 hPa | - | - | - | - |
| 1777734428 | 29.44° C | 32% | 996 hPa | - | - | - | - |
| 1777733527 | 29.44° C | 32% | 996 hPa | - | - | - | - |
| 1777732626 | 28.89° C | 32% | 996 hPa | - | - | - | - |
| 1777731725 | 28.89° C | 30% | 996 hPa | - | - | - | - |
| 1777730824 | 28.89° C | 32% | 996 hPa | - | - | - | - |
| 1777729922 | 29.44° C | 33% | 997 hPa | - | - | - | - |
| 1777729021 | 28.33° C | 33% | 997 hPa | - | - | - | - |
| 1777728120 | 28.33° C | 33% | 997 hPa | - | - | - | - |
| 1777727219 | 28.33° C | 32% | 997 hPa | - | - | - | - |
| 1777726317 | 28.33° C | 32% | 997 hPa | - | - | - | - |
| 1777725416 | 27.78° C | 33% | 998 hPa | - | - | - | - |
| 1777724514 | 27.22° C | 36% | 998 hPa | - | - | - | - |
| 1777723613 | 27.22° C | 35% | 998 hPa | - | - | - | - |
* Rain since midnight (hover to see other rain measurements)
** Current wind speed in m/s (hover to see current wind gust speed)